Time;durP1;ratioP1;P1;durP2;ratioP2;P2;SDS_P1;SDS_P2;PMS_P1;PMS_P2;Temp;Humidity;BMP_temperature;BMP_pressure;BME280_temperature;BME280_humidity;BME280_pressure;Samples;Min_cycle;Max_cycle;Signal;HPM_P1;HPM_P2
2023/04/27 00:01:18;;;;;;;6.67;3.80;;;;;;;6.26;67.53;101177.13;4970671;28;20686;-72
2023/04/27 00:03:46;;;;;;;5.97;3.90;;;;;;;6.26;67.81;101176.25;4970754;28;20227;-72
2023/04/27 00:06:14;;;;;;;5.40;3.73;;;;;;;6.23;67.88;101182.50;4969529;28;20609;-72
2023/04/27 00:08:40;;;;;;;9.33;3.33;;;;;;;6.22;67.92;101172.00;4969751;28;20700;-72
2023/04/27 00:11:07;;;;;;;8.07;4.50;;;;;;;6.20;67.56;101182.63;4968951;28;20234;-73
2023/04/27 00:13:34;;;;;;;4.57;3.63;;;;;;;6.19;68.02;101170.31;4971907;28;20204;-72
2023/04/27 00:16:02;;;;;;;5.23;3.43;;;;;;;6.20;67.87;101174.69;4969528;28;20327;-70
2023/04/27 00:18:29;;;;;;;5.87;3.90;;;;;;;6.19;68.22;101165.03;4970960;28;20215;-72
2023/04/27 00:20:56;;;;;;;8.30;4.03;;;;;;;6.19;68.28;101174.75;4964067;28;20221;-73
2023/04/27 00:23:25;;;;;;;5.80;3.60;;;;;;;6.20;67.98;101179.13;4967590;28;20266;-72
2023/04/27 00:25:51;;;;;;;7.73;4.10;;;;;;;6.19;67.89;101174.75;4965513;28;20220;-72
2023/04/27 00:28:18;;;;;;;7.07;3.63;;;;;;;6.18;67.82;101173.00;4968849;28;20370;-71
2023/04/27 00:30:45;;;;;;;7.43;4.20;;;;;;;6.17;67.91;101171.28;4970743;28;20212;-72
2023/04/27 00:33:12;;;;;;;5.57;3.77;;;;;;;6.16;67.91;101170.41;4966918;28;20211;-72
2023/04/27 00:35:38;;;;;;;6.10;4.30;;;;;;;6.15;67.98;101171.34;4970081;28;20686;-72
2023/04/27 00:38:05;;;;;;;8.07;3.97;;;;;;;6.16;68.53;101177.50;4966660;28;20208;-70
2023/04/27 00:40:33;;;;;;;7.30;3.70;;;;;;;6.15;68.35;101176.63;4968641;28;20220;-73
2023/04/27 00:43:00;;;;;;;6.20;4.30;;;;;;;6.14;68.30;101172.25;4971138;28;20216;-71
2023/04/27 00:45:26;;;;;;;6.37;3.63;;;;;;;6.14;68.40;101174.91;4967265;28;20219;-72
2023/04/27 00:47:53;;;;;;;8.67;4.67;;;;;;;6.14;68.64;101176.69;4963076;28;20705;-72
2023/04/27 00:50:27;;;;;;;4.87;3.87;;;;;;;6.12;68.48;101179.38;4967712;28;20291;-72
2023/04/27 00:52:54;;;;;;;5.67;4.23;;;;;;;6.11;68.79;101177.66;4972633;28;20237;-73
2023/04/27 00:55:21;;;;;;;6.17;3.73;;;;;;;6.10;68.63;101177.72;4974200;28;20200;-72
2023/04/27 00:57:49;;;;;;;7.30;4.47;;;;;;;6.09;68.90;101179.50;4966829;28;20227;-73
2023/04/27 01:00:16;;;;;;;8.50;4.40;;;;;;;6.08;69.23;101183.09;4967547;28;20263;-72
2023/04/27 01:02:42;;;;;;;7.47;4.17;;;;;;;6.07;69.11;101184.00;4968815;28;20251;-73
2023/04/27 01:05:09;;;;;;;4.87;3.90;;;;;;;6.05;69.46;101182.31;4971522;28;20218;-72
2023/04/27 01:07:37;;;;;;;6.97;4.27;;;;;;;6.03;69.54;101189.44;4970303;28;20307;-72
2023/04/27 01:10:05;;;;;;;6.47;4.23;;;;;;;6.02;69.71;101183.28;4967984;28;20303;-70
2023/04/27 01:12:31;;;;;;;8.20;4.93;;;;;;;6.00;69.74;101185.13;4965334;28;20263;-73
2023/04/27 01:15:00;;;;;;;6.87;4.27;;;;;;;6.01;69.85;101192.13;4968844;28;20219;-70
2023/04/27 01:17:27;;;;;;;7.20;4.33;;;;;;;6.00;70.48;101190.41;4966378;28;20290;-71
2023/04/27 01:19:55;;;;;;;4.90;4.00;;;;;;;6.01;70.38;101193.91;4973054;28;20472;-73
2023/04/27 01:22:22;;;;;;;5.07;4.10;;;;;;;6.00;70.72;101195.69;4967314;28;20209;-73
2023/04/27 01:24:50;;;;;;;7.17;4.37;;;;;;;6.00;70.61;101194.84;4968320;28;20244;-72
2023/04/27 01:27:17;;;;;;;7.07;3.93;;;;;;;6.00;70.86;101195.69;4973234;28;20236;-72
2023/04/27 01:29:43;;;;;;;9.30;4.57;;;;;;;5.99;70.91;101204.56;4967459;28;20286;-71
2023/04/27 01:32:11;;;;;;;9.33;4.50;;;;;;;5.98;70.95;101204.59;4968216;28;20220;-71
2023/04/27 01:34:37;;;;;;;6.93;4.30;;;;;;;5.97;70.99;101203.72;4970166;28;20229;-72
2023/04/27 01:37:04;;;;;;;6.27;4.57;;;;;;;5.97;71.30;101202.88;4971409;28;20239;-70
2023/04/27 01:39:31;;;;;;;6.47;4.93;;;;;;;5.96;71.77;101207.28;4964285;28;20235;-71
2023/04/27 01:41:59;;;;;;;10.57;5.10;;;;;;;5.95;71.25;101202.06;4969737;28;20216;-69
2023/04/27 01:44:25;;;;;;;9.53;4.63;;;;;;;5.96;71.66;101209.94;4967471;28;20208;-72
2023/04/27 01:46:53;;;;;;;8.33;4.23;;;;;;;5.94;71.90;101217.06;4969802;28;20235;-73
2023/04/27 01:49:20;;;;;;;7.43;5.03;;;;;;;5.95;71.87;101223.22;4966040;28;20270;-73
2023/04/27 01:51:47;;;;;;;7.27;4.63;;;;;;;5.92;72.06;101221.53;4970807;28;20283;-73
2023/04/27 01:54:13;;;;;;;7.03;4.90;;;;;;;5.92;72.13;101222.41;4975050;28;20204;-69
2023/04/27 01:56:40;;;;;;;11.27;5.23;;;;;;;5.92;72.34;101235.63;4977143;28;20282;-72
2023/04/27 01:59:08;;;;;;;9.73;4.93;;;;;;;5.92;72.48;101230.31;4974752;28;20212;-72
2023/04/27 02:01:35;;;;;;;9.27;5.20;;;;;;;5.91;72.12;101228.59;4973763;28;20207;-73
2023/04/27 02:04:02;;;;;;;11.03;4.80;;;;;;;5.91;72.69;101238.34;4974765;28;20252;-72
2023/04/27 02:06:30;;;;;;;9.57;4.90;;;;;;;5.88;72.85;101236.66;4974817;28;20304;-72
2023/04/27 02:08:56;;;;;;;6.43;4.40;;;;;;;5.86;72.63;101234.94;4974804;28;20227;-72
2023/04/27 02:11:23;;;;;;;9.17;5.50;;;;;;;5.84;72.75;101253.50;4973091;28;20212;-72
2023/04/27 02:13:50;;;;;;;7.27;4.50;;;;;;;5.82;72.53;101250.03;4973769;28;20216;-72
2023/04/27 02:16:18;;;;;;;7.73;4.50;;;;;;;5.80;73.03;101262.44;4971674;28;20311;-73
2023/04/27 02:18:45;;;;;;;8.83;4.50;;;;;;;5.79;73.13;101257.22;4973729;28;20212;-73
2023/04/27 02:21:12;;;;;;;8.70;4.57;;;;;;;5.76;73.25;101259.94;4972228;28;20219;-72
2023/04/27 02:23:39;;;;;;;6.67;4.67;;;;;;;5.72;73.27;101261.84;4973813;28;20587;-72
2023/04/27 02:26:06;;;;;;;10.30;4.37;;;;;;;5.71;73.35;101267.19;4971378;28;20271;-73
2023/04/27 02:28:32;;;;;;;10.50;4.57;;;;;;;5.68;73.63;101267.28;4973759;28;20236;-72
2023/04/27 02:31:00;;;;;;;6.77;4.27;;;;;;;5.65;73.13;101270.03;4974179;28;20267;-72
2023/04/27 02:33:28;;;;;;;8.57;4.93;;;;;;;5.62;73.43;101270.13;4973273;28;20212;-72
2023/04/27 02:35:55;;;;;;;10.00;4.57;;;;;;;5.58;73.68;101280.78;4969998;28;20602;-73
2023/04/27 02:38:21;;;;;;;7.53;4.30;;;;;;;5.55;73.71;101272.97;4978373;28;20210;-72
2023/04/27 02:40:53;;;;;;;7.03;4.80;;;;;;;5.53;74.02;101274.81;4971831;28;20208;-72
2023/04/27 02:43:20;;;;;;;7.43;4.17;;;;;;;5.49;73.70;101275.81;4974131;28;20212;-72
2023/04/27 02:45:46;;;;;;;5.03;4.03;;;;;;;5.48;74.19;101273.22;4977081;28;20235;-72
2023/04/27 02:48:13;;;;;;;6.67;4.03;;;;;;;5.46;74.13;101275.06;4972471;28;20235;-72
2023/04/27 02:50:42;;;;;;;7.63;4.13;;;;;;;5.44;74.31;101274.22;4971601;28;20295;-73
2023/04/27 02:53:10;;;;;;;8.73;4.50;;;;;;;5.40;74.00;101272.59;4974559;28;20204;-71
2023/04/27 02:55:37;;;;;;;8.63;4.20;;;;;;;5.35;74.15;101274.53;4971922;28;20243;-72
2023/04/27 02:58:04;;;;;;;8.67;4.20;;;;;;;5.31;74.26;101263.19;4968630;28;20297;-70
2023/04/27 03:00:31;;;;;;;6.90;3.73;;;;;;;5.27;74.26;101258.94;4967548;28;20204;-72
2023/04/27 03:02:57;;;;;;;7.00;4.57;;;;;;;5.24;74.58;101261.66;4973910;28;20209;-72
2023/04/27 03:05:27;;;;;;;6.23;4.13;;;;;;;5.22;74.73;101263.47;4971359;28;20212;-72
2023/04/27 03:07:55;;;;;;;6.30;4.30;;;;;;;5.20;74.99;101262.66;4970306;28;20214;-72
2023/04/27 03:10:21;;;;;;;8.90;4.00;;;;;;;5.16;74.87;101269.84;4971045;28;20219;-72
2023/04/27 03:12:48;;;;;;;6.10;4.27;;;;;;;5.14;74.45;101273.44;4975992;28;20204;-71
2023/04/27 03:15:14;;;;;;;7.67;4.47;;;;;;;5.11;74.61;101265.59;4971987;28;20591;-72
2023/04/27 03:17:41;;;;;;;5.90;4.27;;;;;;;5.08;74.99;101265.69;4970420;28;20229;-72
2023/04/27 03:20:09;;;;;;;8.03;4.97;;;;;;;5.04;74.84;101262.28;4970492;28;20220;-72
2023/04/27 03:22:35;;;;;;;7.37;4.87;;;;;;;5.02;75.20;101263.22;4975207;28;20291;-73
2023/04/27 03:25:04;;;;;;;6.60;4.50;;;;;;;5.00;75.12;101267.72;4966066;28;20594;-72
2023/04/27 03:27:31;;;;;;;10.37;5.03;;;;;;;4.98;75.22;101264.25;4967151;28;20232;-72
2023/04/27 03:29:57;;;;;;;7.13;4.70;;;;;;;4.94;75.04;101273.19;4967393;28;20236;-72
2023/04/27 03:32:24;;;;;;;6.57;4.40;;;;;;;4.91;75.27;101267.97;4970645;28;20476;-72
2023/04/27 03:34:52;;;;;;;8.60;4.30;;;;;;;4.85;75.33;101263.75;4968658;28;20646;-72
2023/04/27 03:37:18;;;;;;;6.57;4.17;;;;;;;4.84;75.44;101267.28;4970333;28;20598;-70
2023/04/27 03:39:45;;;;;;;7.70;4.23;;;;;;;4.81;75.01;101273.56;4965346;28;20267;-72
2023/04/27 03:42:13;;;;;;;8.23;4.30;;;;;;;4.80;75.30;101273.59;4969228;28;20656;-69
2023/04/27 03:44:40;;;;;;;8.10;4.23;;;;;;;4.76;75.68;101280.72;4965816;28;20287;-72
2023/04/27 03:47:08;;;;;;;9.40;4.50;;;;;;;4.73;75.48;101279.94;4968785;28;20256;-72
2023/04/27 03:49:34;;;;;;;6.57;5.00;;;;;;;4.71;75.84;101289.69;4969796;28;20224;-72
2023/04/27 03:52:02;;;;;;;6.20;5.07;;;;;;;4.69;76.18;101289.72;4970203;28;20212;-71
2023/04/27 03:54:28;;;;;;;5.83;4.90;;;;;;;4.66;75.83;101286.34;4968638;28;20219;-72
2023/04/27 03:56:55;;;;;;;8.33;5.30;;;;;;;4.64;76.19;101283.72;4968508;28;20229;-73
2023/04/27 03:59:23;;;;;;;7.00;5.07;;;;;;;4.62;75.76;101288.19;4968862;28;20224;-72
2023/04/27 04:01:50;;;;;;;8.70;5.53;;;;;;;4.60;75.71;101294.41;4964038;28;20597;-72
2023/04/27 04:04:17;;;;;;;6.27;4.40;;;;;;;4.57;75.99;101284.81;4971247;28;20740;-70
2023/04/27 04:06:43;;;;;;;8.40;4.57;;;;;;;4.54;76.02;101285.75;4970851;28;20234;-72
2023/04/27 04:09:11;;;;;;;7.03;4.70;;;;;;;4.54;76.54;101290.16;4966987;28;20275;-73
2023/04/27 04:11:38;;;;;;;6.70;4.27;;;;;;;4.51;75.83;101285.84;4967219;28;20200;-71
2023/04/27 04:14:04;;;;;;;6.57;4.80;;;;;;;4.49;75.88;101287.66;4970276;28;20216;-72
2023/04/27 04:16:33;;;;;;;11.63;4.60;;;;;;;4.48;76.03;101290.31;4968953;28;20244;-72
2023/04/27 04:18:59;;;;;;;7.20;4.60;;;;;;;4.48;75.83;101290.31;4969283;28;20295;-69
2023/04/27 04:21:26;;;;;;;6.00;3.77;;;;;;;4.43;75.79;101292.25;4968960;28;20233;-69
2023/04/27 04:23:53;;;;;;;7.50;3.57;;;;;;;4.37;75.48;101298.56;4966275;28;20216;-71
2023/04/27 04:26:22;;;;;;;7.47;3.83;;;;;;;4.32;75.54;101300.44;4971841;28;20224;-69
2023/04/27 04:28:49;;;;;;;9.17;4.53;;;;;;;4.25;76.02;101295.38;4972311;28;20267;-72
2023/04/27 04:31:17;;;;;;;6.60;4.23;;;;;;;4.19;75.66;101309.59;4968817;28;20224;-70
2023/04/27 04:33:45;;;;;;;6.83;3.53;;;;;;;4.14;75.60;101306.19;4970268;28;20631;-74
2023/04/27 04:36:12;;;;;;;6.97;3.93;;;;;;;4.09;75.89;101308.13;4967517;28;20232;-73
2023/04/27 04:38:38;;;;;;;6.80;3.90;;;;;;;4.03;75.61;101310.91;4970830;28;20208;-73
2023/04/27 04:41:06;;;;;;;5.83;3.83;;;;;;;3.96;75.70;101314.59;4969161;28;20737;-72
2023/04/27 04:43:32;;;;;;;5.43;3.43;;;;;;;3.91;76.57;101312.09;4970025;28;20250;-72
2023/04/27 04:45:59;;;;;;;6.27;3.60;;;;;;;3.87;76.11;101305.16;4965637;28;20238;-73
2023/04/27 04:48:26;;;;;;;6.67;3.87;;;;;;;3.85;76.51;101309.59;4970668;28;20701;-72
2023/04/27 04:50:54;;;;;;;8.43;3.40;;;;;;;3.81;76.67;101306.16;4968776;28;20221;-72
2023/04/27 04:53:20;;;;;;;5.60;3.40;;;;;;;3.81;76.81;101310.56;4968708;28;20208;-73
2023/04/27 04:55:47;;;;;;;6.93;3.87;;;;;;;3.80;77.59;101322.03;4969286;28;20396;-73
2023/04/27 04:58:13;;;;;;;5.47;3.47;;;;;;;3.79;77.86;101326.41;4966316;28;20215;-70
2023/04/27 05:00:40;;;;;;;7.73;5.20;;;;;;;3.79;77.74;101322.91;4970794;28;20224;-70
2023/04/27 05:03:07;;;;;;;6.90;4.17;;;;;;;3.79;78.43;101320.28;4963892;28;20416;-72
2023/04/27 05:05:33;;;;;;;9.07;4.03;;;;;;;3.81;78.05;101326.38;4967619;28;20204;-73
2023/04/27 05:08:01;;;;;;;5.43;3.67;;;;;;;3.84;78.43;101328.94;4963112;28;20220;-73
2023/04/27 05:10:27;;;;;;;6.23;3.40;;;;;;;3.88;78.55;101322.72;4963099;28;20231;-72
2023/04/27 05:12:54;;;;;;;10.07;3.27;;;;;;;3.91;78.49;101325.28;4963593;28;20208;-73
2023/04/27 05:15:20;;;;;;;6.03;3.23;;;;;;;3.97;78.95;101332.13;4958888;28;20204;-72
2023/04/27 05:17:47;;;;;;;7.40;3.47;;;;;;;3.99;78.53;101328.56;4970480;28;20236;-72
2023/04/27 05:20:13;;;;;;;7.83;4.13;;;;;;;4.05;78.82;101328.41;4959331;28;20215;-72
2023/04/27 05:22:40;;;;;;;6.27;3.50;;;;;;;4.11;79.36;101332.66;4963402;28;20211;-72
2023/04/27 05:25:08;;;;;;;6.90;3.63;;;;;;;4.17;78.34;101338.63;4966080;28;20239;-72
2023/04/27 05:27:35;;;;;;;4.60;3.10;;;;;;;4.23;78.96;101336.75;4962754;28;20607;-72
2023/04/27 05:30:02;;;;;;;6.63;3.20;;;;;;;4.31;78.38;101332.13;4963281;28;20314;-74
2023/04/27 05:32:29;;;;;;;5.43;3.10;;;;;;;4.40;79.03;101345.94;4962963;28;20689;-72
2023/04/27 05:34:56;;;;;;;9.03;3.50;;;;;;;4.51;79.22;101335.09;4973925;28;20247;-73
2023/04/27 05:37:22;;;;;;;9.80;3.90;;;;;;;4.62;78.86;101343.59;4969881;28;20275;-72
2023/04/27 05:39:49;;;;;;;5.77;3.40;;;;;;;4.76;79.15;101348.47;4970529;28;20234;-73
2023/04/27 05:42:17;;;;;;;7.17;3.93;;;;;;;4.88;78.85;101337.56;4965972;28;20227;-74
2023/04/27 05:44:43;;;;;;;6.07;3.90;;;;;;;5.01;77.81;101343.38;4965160;28;20413;-72
2023/04/27 05:47:10;;;;;;;4.90;3.57;;;;;;;5.10;77.63;101336.03;4970817;28;20605;-72
2023/04/27 05:49:36;;;;;;;5.13;3.47;;;;;;;5.23;77.18;101347.06;4969891;28;20251;-73
2023/04/27 05:52:03;;;;;;;8.50;3.67;;;;;;;5.34;76.82;101349.41;4972547;28;20290;-74
2023/04/27 05:54:30;;;;;;;5.97;3.57;;;;;;;5.43;76.00;101343.81;4971864;28;20665;-72
2023/04/27 05:56:57;;;;;;;5.90;3.63;;;;;;;5.53;75.52;101345.28;4974661;28;20294;-73
2023/04/27 05:59:26;;;;;;;7.53;3.53;;;;;;;5.67;75.18;101355.41;4969705;28;20419;-73
2023/04/27 06:01:52;;;;;;;6.23;3.40;;;;;;;5.78;74.58;101345.34;4972786;28;20215;-72
2023/04/27 06:04:19;;;;;;;7.67;3.77;;;;;;;5.89;74.35;101349.41;4971138;28;20213;-72
2023/04/27 06:06:45;;;;;;;5.17;3.80;;;;;;;6.02;73.44;101356.94;4969037;28;20689;-73
2023/04/27 06:09:13;;;;;;;10.57;3.90;;;;;;;6.12;73.01;101359.22;4971853;28;20494;-73
2023/04/27 06:11:39;;;;;;;5.33;4.07;;;;;;;6.24;72.85;101369.41;4967569;28;20208;-73
2023/04/27 06:14:06;;;;;;;9.87;4.20;;;;;;;6.34;72.50;101363.78;4976698;28;20607;-73
2023/04/27 06:16:34;;;;;;;8.33;4.10;;;;;;;6.47;72.26;101360.66;4977311;28;20663;-73
2023/04/27 06:19:01;;;;;;;6.77;3.70;;;;;;;6.59;71.92;101365.53;4974057;28;20212;-71
2023/04/27 06:21:27;;;;;;;6.23;3.57;;;;;;;6.71;71.84;101366.00;4977570;28;20295;-73
2023/04/27 06:23:54;;;;;;;5.90;3.43;;;;;;;6.82;71.43;101355.88;4978213;28;20745;-73
2023/04/27 06:26:20;;;;;;;6.87;3.63;;;;;;;6.92;70.25;101363.44;4969112;28;20253;-73
2023/04/27 06:28:47;;;;;;;8.47;2.80;;;;;;;7.05;70.34;101370.91;4972250;28;20516;-74
2023/04/27 06:31:14;;;;;;;5.27;2.60;;;;;;;7.15;69.70;101372.31;4971683;28;20231;-74
2023/04/27 06:33:41;;;;;;;6.63;3.13;;;;;;;7.30;68.76;101379.69;4973843;28;20278;-73
2023/04/27 06:36:08;;;;;;;7.83;2.70;;;;;;;7.39;68.02;101373.16;4970043;28;20235;-74
2023/04/27 06:38:35;;;;;;;5.83;2.60;;;;;;;7.49;67.14;101375.41;4970243;28;20204;-74
2023/04/27 06:41:02;;;;;;;3.97;2.77;;;;;;;7.60;67.20;101374.97;4973691;28;20209;-75
2023/04/27 06:43:29;;;;;;;5.07;2.50;;;;;;;7.72;66.11;101373.59;4972973;28;20693;-74
2023/04/27 06:45:56;;;;;;;4.47;2.47;;;;;;;7.80;65.08;101376.81;4971815;28;20743;-73
2023/04/27 06:48:22;;;;;;;4.43;2.27;;;;;;;7.89;64.95;101387.03;4969228;28;20304;-74
2023/04/27 06:50:50;;;;;;;4.40;3.00;;;;;;;7.97;64.40;101383.16;4964367;28;20228;-73
2023/04/27 06:53:17;;;;;;;6.63;2.33;;;;;;;8.08;64.64;101384.50;4969443;28;20240;-74
2023/04/27 06:55:44;;;;;;;4.17;2.40;;;;;;;8.22;63.63;101384.81;4967847;28;20217;-72
2023/04/27 06:58:10;;;;;;;4.10;2.43;;;;;;;8.35;63.87;101386.91;4972421;28;20307;-73
2023/04/27 07:00:37;;;;;;;4.80;2.90;;;;;;;8.51;62.73;101388.91;4971709;28;20209;-74
2023/04/27 07:03:04;;;;;;;4.33;2.47;;;;;;;8.60;61.45;101388.50;4968869;28;20211;-73
2023/04/27 07:05:30;;;;;;;5.27;2.43;;;;;;;8.63;60.17;101383.94;4967021;28;20222;-74
2023/04/27 07:07:58;;;;;;;5.43;2.60;;;;;;;8.68;59.62;101376.63;4968409;28;20741;-74
2023/04/27 07:10:25;;;;;;;3.97;2.40;;;;;;;8.73;59.57;101373.78;4967124;28;20266;-70
2023/04/27 07:12:51;;;;;;;4.10;2.57;;;;;;;8.81;59.19;101381.38;4967478;28;20291;-73
2023/04/27 07:15:18;;;;;;;2.63;2.20;;;;;;;8.90;59.64;101375.69;4966362;28;20214;-73
2023/04/27 07:17:45;;;;;;;4.33;2.20;;;;;;;9.02;59.17;101386.63;4969390;28;20247;-74
2023/04/27 07:20:13;;;;;;;5.97;2.60;;;;;;;9.16;58.90;101378.00;4965694;28;20205;-73
2023/04/27 07:22:39;;;;;;;3.70;1.90;;;;;;;9.28;57.76;101380.13;4972199;28;20231;-74
2023/04/27 07:25:09;;;;;;;5.67;1.90;;;;;;;9.33;56.56;101374.56;4965108;28;20296;-75
2023/04/27 07:27:35;;;;;;;3.40;2.10;;;;;;;9.42;56.06;101381.25;4962517;28;21572;-73
2023/04/27 07:30:02;;;;;;;3.57;1.90;;;;;;;9.51;56.12;101378.16;4964919;28;20313;-74
2023/04/27 07:32:29;;;;;;;5.37;1.73;;;;;;;9.60;55.08;101380.41;4964247;28;20212;-74
2023/04/27 07:34:56;;;;;;;5.97;1.90;;;;;;;9.67;54.78;101379.19;4964063;28;20707;-71
2023/04/27 07:37:24;;;;;;;4.13;2.37;;;;;;;9.74;54.64;101376.13;4965860;28;20259;-73
2023/04/27 07:39:51;;;;;;;3.53;2.17;;;;;;;9.82;54.17;101383.75;4964139;28;20215;-73
2023/04/27 07:42:21;;;;;;;3.63;1.97;;;;;;;9.92;53.99;101389.47;4963807;28;20227;-74
2023/04/27 07:44:49;;;;;;;4.47;2.10;;;;;;;9.97;53.38;101392.78;4967766;28;20212;-74
2023/04/27 07:47:16;;;;;;;3.40;2.17;;;;;;;10.00;52.93;101397.97;4964796;28;20240;-73
2023/04/27 07:49:44;;;;;;;4.20;2.00;;;;;;;9.94;52.49;101390.28;4962385;28;20303;-73
2023/04/27 07:52:11;;;;;;;4.50;1.73;;;;;;;9.89;51.58;101393.16;4965245;28;20264;-72
2023/04/27 07:54:37;;;;;;;4.93;1.90;;;;;;;9.95;52.28;101378.69;4965777;28;20275;-73
2023/04/27 07:57:08;;;;;;;2.77;1.73;;;;;;;10.13;52.56;101382.25;4958302;28;20309;-74
2023/04/27 07:59:36;;;;;;;3.07;1.63;;;;;;;10.31;51.96;101389.34;4964712;28;20205;-73
2023/04/27 08:02:02;;;;;;;3.43;1.40;;;;;;;10.40;50.66;101389.72;4961676;28;20209;-74
2023/04/27 08:04:29;;;;;;;3.93;1.50;;;;;;;10.46;50.32;101385.88;4963789;28;20208;-73
2023/04/27 08:06:56;;;;;;;3.83;1.60;;;;;;;10.47;48.94;101376.97;4964946;28;20774;-73
2023/04/27 08:09:22;;;;;;;2.90;1.50;;;;;;;10.54;48.79;101381.03;4961620;28;20205;-74
2023/04/27 08:11:49;;;;;;;2.77;1.60;;;;;;;10.62;49.30;101380.63;4962549;28;20269;-74
2023/04/27 08:14:16;;;;;;;3.10;1.60;;;;;;;10.74;48.68;101380.88;4966626;28;20207;-74
2023/04/27 08:16:44;;;;;;;3.47;1.60;;;;;;;10.88;48.70;101372.16;4960818;28;20229;-73
2023/04/27 08:19:11;;;;;;;3.60;1.70;;;;;;;11.03;49.04;101374.00;4964535;28;20467;-74
2023/04/27 08:21:37;;;;;;;3.87;2.13;;;;;;;11.18;48.02;101374.97;4962179;28;20225;-73
2023/04/27 08:24:05;;;;;;;4.27;1.50;;;;;;;11.30;47.94;101368.09;4964888;28;20242;-73
2023/04/27 08:26:32;;;;;;;6.70;1.97;;;;;;;11.39;46.57;101368.47;4963393;28;20655;-73
2023/04/27 08:28:59;;;;;;;3.97;1.60;;;;;;;11.48;45.96;101375.94;4963142;28;20208;-74
2023/04/27 08:31:27;;;;;;;4.77;1.80;;;;;;;11.61;46.21;101372.59;4966742;28;20244;-71
2023/04/27 08:33:57;;;;;;;6.83;2.00;;;;;;;11.71;45.13;101371.13;4962645;28;20672;-74
2023/04/27 08:36:25;;;;;;;4.17;1.87;;;;;;;11.73;45.06;101369.25;4960549;28;20234;-74
2023/04/27 08:38:51;;;;;;;4.63;1.80;;;;;;;11.74;44.66;101363.81;4965944;28;20220;-74
2023/04/27 08:41:19;;;;;;;3.47;1.70;;;;;;;11.85;45.81;101371.22;4966517;28;20198;-73
2023/04/27 08:43:48;;;;;;;4.70;1.77;;;;;;;11.94;44.67;101362.72;4965783;28;20567;-75
2023/04/27 08:46:18;;;;;;;3.67;1.80;;;;;;;12.04;44.63;101357.69;4959422;28;20224;-74
2023/04/27 08:48:44;;;;;;;3.60;1.53;;;;;;;12.15;44.27;101357.94;4961495;28;20220;-74
2023/04/27 08:51:15;;;;;;;1.80;1.20;;;;;;;12.28;43.77;101366.06;4963669;28;20672;-74
2023/04/27 08:53:49;;;;;;;3.53;1.10;;;;;;;12.40;42.65;101362.66;4960963;28;20208;-74
2023/04/27 08:56:15;;;;;;;3.50;1.10;;;;;;;12.51;42.07;101369.13;4971804;28;20780;-71
2023/04/27 08:58:42;;;;;;;3.73;1.27;;;;;;;12.64;41.57;101355.88;4963821;28;20218;-74
2023/04/27 09:01:08;;;;;;;2.60;1.50;;;;;;;12.71;41.27;101365.25;4966802;28;20310;-74
2023/04/27 09:03:36;;;;;;;5.50;1.80;;;;;;;12.78;41.28;101355.00;4964580;28;20218;-72
2023/04/27 09:06:04;;;;;;;2.00;1.57;;;;;;;12.85;40.97;101353.69;4964785;28;20324;-74
2023/04/27 09:08:42;;;;;;;4.17;1.40;;;;;;;12.92;40.91;101363.03;4965332;28;20282;-70
2023/04/27 09:11:09;;;;;;;3.57;1.90;;;;;;;12.87;40.17;101362.47;4967779;28;20638;-74
2023/04/27 09:13:36;;;;;;;3.40;1.30;;;;;;;12.81;40.57;101360.19;4964289;28;20708;-74
2023/04/27 09:16:03;;;;;;;2.47;1.37;;;;;;;12.73;40.53;101360.63;4966501;28;20290;-74
2023/04/27 09:18:32;;;;;;;2.33;1.53;;;;;;;12.65;40.87;101359.41;4967266;28;20214;-73
2023/04/27 09:21:00;;;;;;;2.27;1.70;;;;;;;12.50;40.03;101364.72;4967907;28;20215;-74
2023/04/27 09:23:27;;;;;;;4.03;1.37;;;;;;;12.43;40.85;101366.03;4971270;28;20693;-71
2023/04/27 09:25:56;;;;;;;2.53;1.53;;;;;;;12.33;40.52;101361.34;4964699;28;20227;-73
2023/04/27 09:28:24;;;;;;;3.47;1.63;;;;;;;12.28;40.63;101366.06;4965079;28;20212;-70
2023/04/27 09:30:53;;;;;;;5.07;1.60;;;;;;;12.32;41.38;101365.81;4967341;28;20235;-69
2023/04/27 09:33:23;;;;;;;2.00;1.20;;;;;;;12.39;40.79;101364.47;4969509;28;20215;-71
2023/04/27 09:35:50;;;;;;;2.03;1.30;;;;;;;12.53;40.61;101363.69;4958085;28;20273;-69
2023/04/27 09:38:18;;;;;;;2.40;1.30;;;;;;;12.61;39.87;101353.38;4965863;28;20234;-71
2023/04/27 09:40:45;;;;;;;2.80;1.37;;;;;;;12.69;39.52;101351.09;4966444;28;20538;-72
2023/04/27 09:43:13;;;;;;;3.03;1.30;;;;;;;12.81;39.01;101352.16;4964140;28;20713;-71
2023/04/27 09:45:39;;;;;;;2.13;1.43;;;;;;;12.85;38.75;101346.53;4964327;28;20215;-71
2023/04/27 09:48:07;;;;;;;2.53;1.60;;;;;;;12.91;39.30;101342.59;4968424;28;21007;-70
2023/04/27 09:50:36;;;;;;;3.50;1.53;;;;;;;13.01;39.40;101337.56;4970274;28;20310;-70
2023/04/27 09:53:03;;;;;;;3.70;1.40;;;;;;;13.10;39.27;101335.16;4968374;28;20216;-72
2023/04/27 09:55:36;;;;;;;1.43;1.33;;;;;;;13.14;38.98;101334.00;4968623;28;20694;-70
2023/04/27 09:58:29;;;;;;;3.23;1.40;;;;;;;13.20;38.65;101338.16;4960766;28;20216;-73
2023/04/27 10:01:06;;;;;;;3.37;1.50;;;;;;;13.31;38.61;101334.78;4958827;28;20219;-71
2023/04/27 10:03:43;;;;;;;2.47;1.80;;;;;;;13.38;38.67;101336.13;4955254;28;20219;-71
2023/04/27 10:06:51;;;;;;;2.63;1.40;;;;;;;13.49;38.97;101338.97;4960105;28;20239;-71
2023/04/27 10:09:22;;;;;;;2.20;1.60;;;;;;;13.53;37.43;101332.44;4973396;28;20638;-72
2023/04/27 10:11:50;;;;;;;1.90;1.40;;;;;;;13.51;37.67;101334.38;4970808;28;20232;-71
2023/04/27 10:14:18;;;;;;;1.70;1.50;;;;;;;13.48;36.69;101338.09;4971681;28;20207;-70
2023/04/27 10:16:49;;;;;;;1.83;1.30;;;;;;;13.45;37.18;101337.44;4972132;28;20347;-71
2023/04/27 10:19:16;;;;;;;4.67;1.53;;;;;;;13.50;36.74;101338.00;4973100;28;20219;-72
2023/04/27 10:21:55;;;;;;;2.33;1.40;;;;;;;13.52;36.34;101339.63;4977225;28;20208;-71
2023/04/27 10:24:32;;;;;;;4.37;1.53;;;;;;;13.56;35.82;101340.28;4973751;28;20553;-73
2023/04/27 10:27:04;;;;;;;5.20;1.90;;;;;;;13.52;35.86;101339.63;4969778;28;20243;-71
2023/04/27 10:29:36;;;;;;;3.30;1.53;;;;;;;13.49;36.17;101344.31;4973419;28;20208;-70
2023/04/27 10:32:08;;;;;;;4.70;1.43;;;;;;;13.46;36.21;101333.78;4972469;28;20227;-70
2023/04/27 10:34:36;;;;;;;2.50;1.60;;;;;;;13.49;36.64;101341.63;4966761;28;20200;-71
2023/04/27 10:37:07;;;;;;;3.63;1.50;;;;;;;13.60;37.06;101335.59;4968495;28;20220;-71
2023/04/27 10:39:36;;;;;;;2.00;1.60;;;;;;;13.71;36.85;101330.41;4963864;28;20276;-71
2023/04/27 10:42:03;;;;;;;2.40;1.50;;;;;;;13.79;37.25;101331.59;4967865;28;20207;-71
2023/04/27 10:44:31;;;;;;;3.70;1.80;;;;;;;13.90;36.68;101329.09;4968106;28;20733;-69
2023/04/27 10:46:59;;;;;;;3.27;1.50;;;;;;;13.94;35.66;101329.75;4969683;28;20228;-71
2023/04/27 10:49:29;;;;;;;2.23;1.50;;;;;;;13.88;34.97;101325.66;4965325;28;20252;-69
2023/04/27 10:51:58;;;;;;;3.70;1.73;;;;;;;13.77;35.46;101328.19;4964037;28;20229;-71
2023/04/27 10:54:26;;;;;;;2.27;1.50;;;;;;;13.74;35.69;101322.16;4967971;28;20219;-71
2023/04/27 10:56:53;;;;;;;3.70;1.50;;;;;;;13.75;35.35;101319.41;4966733;28;20679;-70
2023/04/27 10:59:20;;;;;;;3.10;1.50;;;;;;;13.77;34.79;101322.84;4970732;28;20204;-69
2023/04/27 11:01:48;;;;;;;2.70;1.73;;;;;;;13.73;35.35;101324.00;4970369;28;20216;-71
2023/04/27 11:04:15;;;;;;;2.10;1.80;;;;;;;13.70;35.08;101316.16;4968617;28;20227;-74
2023/04/27 11:06:45;;;;;;;2.27;1.60;;;;;;;13.70;35.25;101316.16;4963882;28;20624;-73
2023/04/27 11:09:13;;;;;;;2.10;1.53;;;;;;;13.77;35.89;101321.97;4962582;28;20733;-73
2023/04/27 11:11:44;;;;;;;2.10;1.70;;;;;;;13.89;35.53;101308.63;4961787;28;20232;-74
2023/04/27 11:14:15;;;;;;;1.97;1.47;;;;;;;14.01;35.05;101306.06;4966578;28;20216;-73
2023/04/27 11:16:46;;;;;;;1.30;1.20;;;;;;;14.07;34.27;101314.56;4960933;28;20228;-71
2023/04/27 11:19:13;;;;;;;1.20;1.03;;;;;;;14.15;33.54;101308.69;4962682;28;20218;-74
2023/04/27 11:21:39;;;;;;;4.07;1.70;;;;;;;14.24;33.25;101310.75;4967312;28;20240;-74
2023/04/27 11:24:08;;;;;;;3.43;1.30;;;;;;;14.31;33.14;101305.84;4963357;28;20219;-73
2023/04/27 11:26:35;;;;;;;2.67;1.20;;;;;;;14.39;32.44;101311.50;4966544;28;20298;-73
2023/04/27 11:29:04;;;;;;;1.80;1.40;;;;;;;14.47;31.88;101310.06;4966850;28;20218;-74
2023/04/27 11:31:40;;;;;;;2.87;1.43;;;;;;;14.57;32.48;101304.91;4971158;28;20249;-71
2023/04/27 11:34:07;;;;;;;3.27;1.93;;;;;;;14.66;32.37;101306.97;4972593;28;20327;-73